sensor_id;sensor_type;location;lat;lon;timestamp;pressure;altitude;pressure_sealevel;temperature;humidity
54453;BME280;40363;52.270;10.546;2023-02-18T00:00:59;77336.19;;;-147.06;69.48
54453;BME280;40363;52.270;10.546;2023-02-18T00:03:27;77348.53;;;-147.06;69.97
54453;BME280;40363;52.270;10.546;2023-02-18T00:05:56;77336.19;;;-147.06;69.94
54453;BME280;40363;52.270;10.546;2023-02-18T00:08:22;77344.41;;;-147.06;69.98
54453;BME280;40363;52.270;10.546;2023-02-18T00:10:49;77342.38;;;-147.06;70.05
54453;BME280;40363;52.270;10.546;2023-02-18T00:13:16;77350.59;;;-147.06;70.46
54453;BME280;40363;52.270;10.546;2023-02-18T00:15:42;77352.66;;;-147.06;70.31
54453;BME280;40363;52.270;10.546;2023-02-18T00:18:09;77340.31;;;-147.06;69.85
54453;BME280;40363;52.270;10.546;2023-02-18T00:20:37;77332.09;;;-147.06;69.84
54453;BME280;40363;52.270;10.546;2023-02-18T00:23:05;77327.97;;;-147.06;70.27
54453;BME280;40363;52.270;10.546;2023-02-18T00:25:32;77336.19;;;-147.06;70.76
54453;BME280;40363;52.270;10.546;2023-02-18T00:27:59;77332.09;;;-147.06;70.50
54453;BME280;40363;52.270;10.546;2023-02-18T00:30:25;77336.19;;;-147.06;70.48
54453;BME280;40363;52.270;10.546;2023-02-18T00:32:52;77334.13;;;-147.06;70.64
54453;BME280;40363;52.270;10.546;2023-02-18T00:35:19;77336.19;;;-147.06;70.83
54453;BME280;40363;52.270;10.546;2023-02-18T00:37:45;77336.19;;;-147.06;70.67
54453;BME280;40363;52.270;10.546;2023-02-18T00:40:13;77342.38;;;-147.06;70.93
54453;BME280;40363;52.270;10.546;2023-02-18T00:42:40;77340.31;;;-147.06;71.00
54453;BME280;40363;52.270;10.546;2023-02-18T00:45:07;77332.09;;;-147.06;70.90
54453;BME280;40363;52.270;10.546;2023-02-18T00:47:34;77334.13;;;-147.06;71.05
54453;BME280;40363;52.270;10.546;2023-02-18T00:50:00;77334.13;;;-147.06;71.10
54453;BME280;40363;52.270;10.546;2023-02-18T00:52:27;77344.41;;;-147.06;71.35
54453;BME280;40363;52.270;10.546;2023-02-18T00:54:54;77352.66;;;-147.06;71.26
54453;BME280;40363;52.270;10.546;2023-02-18T00:57:22;77348.53;;;-147.06;71.35
54453;BME280;40363;52.270;10.546;2023-02-18T00:59:48;77344.41;;;-147.06;71.36
54453;BME280;40363;52.270;10.546;2023-02-18T01:02:15;77356.75;;;-147.06;71.16
54453;BME280;40363;52.270;10.546;2023-02-18T01:04:42;77352.66;;;-147.06;71.23
54453;BME280;40363;52.270;10.546;2023-02-18T01:07:09;77346.47;;;-147.06;71.23
54453;BME280;40363;52.270;10.546;2023-02-18T01:09:36;77344.41;;;-147.06;71.27
54453;BME280;40363;52.270;10.546;2023-02-18T01:12:03;77352.66;;;-147.06;71.39
54453;BME280;40363;52.270;10.546;2023-02-18T01:14:31;77352.66;;;-147.06;71.72
54453;BME280;40363;52.270;10.546;2023-02-18T01:16:58;77352.66;;;-147.06;71.68
54453;BME280;40363;52.270;10.546;2023-02-18T01:19:24;77360.88;;;-147.06;71.81
54453;BME280;40363;52.270;10.546;2023-02-18T01:21:51;77362.91;;;-147.06;71.85
54453;BME280;40363;52.270;10.546;2023-02-18T01:24:18;77362.91;;;-147.06;72.11
54453;BME280;40363;52.270;10.546;2023-02-18T01:26:44;77354.69;;;-147.06;72.03
54453;BME280;40363;52.270;10.546;2023-02-18T01:29:11;77350.59;;;-147.06;72.08
54453;BME280;40363;52.270;10.546;2023-02-18T01:31:39;77336.19;;;-147.06;71.82
54453;BME280;40363;52.270;10.546;2023-02-18T01:34:06;77344.41;;;-147.06;72.05
54453;BME280;40363;52.270;10.546;2023-02-18T01:36:32;77336.19;;;-147.06;72.29
54453;BME280;40363;52.270;10.546;2023-02-18T01:38:59;77332.09;;;-147.06;71.83
54453;BME280;40363;52.270;10.546;2023-02-18T01:41:25;77315.63;;;-147.06;72.04
54453;BME280;40363;52.270;10.546;2023-02-18T01:44:11;77315.63;;;-147.06;71.92
54453;BME280;40363;52.270;10.546;2023-02-18T01:46:39;77309.47;;;-147.06;71.95
54453;BME280;40363;52.270;10.546;2023-02-18T01:49:06;77307.41;;;-147.06;71.78
54453;BME280;40363;52.270;10.546;2023-02-18T01:51:36;77295.06;;;-147.06;71.65
54453;BME280;40363;52.270;10.546;2023-02-18T01:54:08;77290.97;;;-147.06;71.89
54453;BME280;40363;52.270;10.546;2023-02-18T01:56:38;77288.91;;;-147.06;71.83
54453;BME280;40363;52.270;10.546;2023-02-18T01:59:09;77295.06;;;-147.06;71.84
54453;BME280;40363;52.270;10.546;2023-02-18T02:01:39;77299.19;;;-147.06;71.94
54453;BME280;40363;52.270;10.546;2023-02-18T02:04:07;77295.06;;;-147.06;71.77
54453;BME280;40363;52.270;10.546;2023-02-18T02:06:34;77276.56;;;-147.06;71.70
54453;BME280;40363;52.270;10.546;2023-02-18T02:09:04;77270.41;;;-147.06;71.56
54453;BME280;40363;52.270;10.546;2023-02-18T02:12:02;77274.53;;;-147.06;71.62
54453;BME280;40363;52.270;10.546;2023-02-18T02:14:54;77274.53;;;-147.06;71.58
54453;BME280;40363;52.270;10.546;2023-02-18T02:17:34;77282.75;;;-147.06;71.76
54453;BME280;40363;52.270;10.546;2023-02-18T02:20:47;77282.75;;;-147.06;71.67
54453;BME280;40363;52.270;10.546;2023-02-18T02:33:05;77270.41;;;-147.06;71.70
54453;BME280;40363;52.270;10.546;2023-02-18T02:35:40;77282.75;;;-147.06;72.21
54453;BME280;40363;52.270;10.546;2023-02-18T02:38:17;77282.75;;;-147.06;72.44
54453;BME280;40363;52.270;10.546;2023-02-18T02:40:48;77280.69;;;-147.06;72.40
54453;BME280;40363;52.270;10.546;2023-02-18T02:43:20;77282.75;;;-147.06;72.65
54453;BME280;40363;52.270;10.546;2023-02-18T02:45:54;77270.41;;;-147.06;72.58
54453;BME280;40363;52.270;10.546;2023-02-18T02:48:31;77272.47;;;-147.06;72.35
54453;BME280;40363;52.270;10.546;2023-02-18T02:51:05;77276.56;;;-147.06;72.80
54453;BME280;40363;52.270;10.546;2023-02-18T02:53:36;77280.69;;;-147.06;72.86
54453;BME280;40363;52.270;10.546;2023-02-18T02:56:05;77268.34;;;-147.06;73.11
54453;BME280;40363;52.270;10.546;2023-02-18T02:58:31;77278.63;;;-147.06;73.03
54453;BME280;40363;52.270;10.546;2023-02-18T03:01:11;77272.47;;;-147.06;73.10
54453;BME280;40363;52.270;10.546;2023-02-18T03:07:07;77268.34;;;-147.06;73.29
54453;BME280;40363;52.270;10.546;2023-02-18T03:09:47;77270.41;;;-147.06;73.37
54453;BME280;40363;52.270;10.546;2023-02-18T03:12:24;77253.97;;;-147.06;73.36
54453;BME280;40363;52.270;10.546;2023-02-18T03:15:04;77258.06;;;-147.06;73.50
54453;BME280;40363;52.270;10.546;2023-02-18T03:17:35;77260.13;;;-147.06;73.50
54453;BME280;40363;52.270;10.546;2023-02-18T03:20:07;77260.13;;;-147.06;73.46
54453;BME280;40363;52.270;10.546;2023-02-18T03:22:40;77241.63;;;-147.06;73.11
54453;BME280;40363;52.270;10.546;2023-02-18T03:25:09;77256.03;;;-147.06;73.53
54453;BME280;40363;52.270;10.546;2023-02-18T03:27:41;77249.84;;;-147.06;73.80
54453;BME280;40363;52.270;10.546;2023-02-18T03:30:13;77249.84;;;-147.06;73.77
54453;BME280;40363;52.270;10.546;2023-02-18T03:32:41;77258.06;;;-147.06;74.12
54453;BME280;40363;52.270;10.546;2023-02-18T03:35:11;77251.91;;;-147.06;74.43
54453;BME280;40363;52.270;10.546;2023-02-18T03:37:42;77253.97;;;-147.06;74.70
54453;BME280;40363;52.270;10.546;2023-02-18T03:40:11;77237.53;;;-147.06;74.64
54453;BME280;40363;52.270;10.546;2023-02-18T03:42:38;77249.84;;;-147.06;75.19
54453;BME280;40363;52.270;10.546;2023-02-18T03:45:05;77231.34;;;-147.06;75.22
54453;BME280;40363;52.270;10.546;2023-02-18T03:47:32;77221.06;;;-147.06;75.43
54453;BME280;40363;52.270;10.546;2023-02-18T03:49:58;77225.19;;;-147.06;75.71
54453;BME280;40363;52.270;10.546;2023-02-18T03:52:25;77216.97;;;-147.06;76.37
54453;BME280;40363;52.270;10.546;2023-02-18T03:54:53;77214.91;;;-147.06;76.55
54453;BME280;40363;52.270;10.546;2023-02-18T03:57:20;77221.06;;;-147.06;77.05
54453;BME280;40363;52.270;10.546;2023-02-18T03:59:46;77216.97;;;-147.06;77.18
54453;BME280;40363;52.270;10.546;2023-02-18T04:02:13;77227.25;;;-147.06;77.82
54453;BME280;40363;52.270;10.546;2023-02-18T04:04:40;77219.03;;;-147.06;77.83
54453;BME280;40363;52.270;10.546;2023-02-18T04:07:06;77212.84;;;-147.06;78.20
54453;BME280;40363;52.270;10.546;2023-02-18T04:09:33;77204.63;;;-147.06;78.14
54453;BME280;40363;52.270;10.546;2023-02-18T04:12:01;77192.28;;;-147.06;77.80
54453;BME280;40363;52.270;10.546;2023-02-18T04:14:28;77194.34;;;-147.06;77.74
54453;BME280;40363;52.270;10.546;2023-02-18T04:16:55;77192.28;;;-147.06;77.55
54453;BME280;40363;52.270;10.546;2023-02-18T04:19:21;77192.28;;;-147.06;77.31
54453;BME280;40363;52.270;10.546;2023-02-18T04:21:48;77186.13;;;-147.06;76.92
54453;BME280;40363;52.270;10.546;2023-02-18T04:24:14;77188.19;;;-147.06;77.28
54453;BME280;40363;52.270;10.546;2023-02-18T04:26:41;77179.97;;;-147.06;77.01
54453;BME280;40363;52.270;10.546;2023-02-18T04:29:09;77188.19;;;-147.06;77.52
54453;BME280;40363;52.270;10.546;2023-02-18T04:31:36;77184.06;;;-147.06;77.54
54453;BME280;40363;52.270;10.546;2023-02-18T04:34:02;77188.19;;;-147.06;77.80
54453;BME280;40363;52.270;10.546;2023-02-18T04:36:29;77182.00;;;-147.06;77.96
54453;BME280;40363;52.270;10.546;2023-02-18T04:38:56;77184.06;;;-147.06;78.29
54453;BME280;40363;52.270;10.546;2023-02-18T04:41:23;77177.91;;;-147.06;78.16
54453;BME280;40363;52.270;10.546;2023-02-18T04:43:50;77188.19;;;-147.06;78.63
54453;BME280;40363;52.270;10.546;2023-02-18T04:46:18;77175.84;;;-147.06;78.80
54453;BME280;40363;52.270;10.546;2023-02-18T04:48:44;77184.06;;;-147.06;79.41
54453;BME280;40363;52.270;10.546;2023-02-18T04:51:11;77175.84;;;-147.06;80.38
54453;BME280;40363;52.270;10.546;2023-02-18T04:53:37;77171.72;;;-147.06;81.20
54453;BME280;40363;52.270;10.546;2023-02-18T04:56:04;77179.97;;;-147.06;82.21
54453;BME280;40363;52.270;10.546;2023-02-18T04:58:31;77192.28;;;-147.06;83.66
54453;BME280;40363;52.270;10.546;2023-02-18T05:00:59;77182.00;;;-147.06;84.80
54453;BME280;40363;52.270;10.546;2023-02-18T05:03:28;77175.84;;;-147.06;85.62
54453;BME280;40363;52.270;10.546;2023-02-18T05:05:55;77177.91;;;-147.06;86.69
54453;BME280;40363;52.270;10.546;2023-02-18T05:08:22;77179.97;;;-147.06;88.32
54453;BME280;40363;52.270;10.546;2023-02-18T05:10:49;77182.00;;;-147.06;89.60
54453;BME280;40363;52.270;10.546;2023-02-18T05:13:15;77177.91;;;-147.06;90.40
54453;BME280;40363;52.270;10.546;2023-02-18T05:15:42;77190.22;;;-147.06;91.65
54453;BME280;40363;52.270;10.546;2023-02-18T05:18:09;77186.13;;;-147.06;93.06
54453;BME280;40363;52.270;10.546;2023-02-18T05:20:36;77184.06;;;-147.06;94.04
54453;BME280;40363;52.270;10.546;2023-02-18T05:23:03;77182.00;;;-147.06;94.88
54453;BME280;40363;52.270;10.546;2023-02-18T05:25:31;77184.06;;;-147.06;96.06
54453;BME280;40363;52.270;10.546;2023-02-18T05:27:57;77177.91;;;-147.06;96.72
54453;BME280;40363;52.270;10.546;2023-02-18T05:30:24;77177.91;;;-147.06;97.30
54453;BME280;40363;52.270;10.546;2023-02-18T05:32:51;77184.06;;;-147.06;98.58
54453;BME280;40363;52.270;10.546;2023-02-18T05:35:17;77175.84;;;-147.06;99.08
54453;BME280;40363;52.270;10.546;2023-02-18T05:37:45;77179.97;;;-147.06;99.87
54453;BME280;40363;52.270;10.546;2023-02-18T05:40:12;77192.28;;;-147.06;100.00
54453;BME280;40363;52.270;10.546;2023-02-18T05:42:38;77179.97;;;-147.06;100.00
54453;BME280;40363;52.270;10.546;2023-02-18T05:45:06;77175.84;;;-147.06;100.00
54453;BME280;40363;52.270;10.546;2023-02-18T05:47:32;77167.63;;;-147.06;100.00
54453;BME280;40363;52.270;10.546;2023-02-18T05:49:59;77175.84;;;-147.06;100.00
54453;BME280;40363;52.270;10.546;2023-02-18T05:52:26;77171.72;;;-147.06;100.00
54453;BME280;40363;52.270;10.546;2023-02-18T05:54:55;77167.63;;;-147.06;100.00
54453;BME280;40363;52.270;10.546;2023-02-18T05:57:22;77165.56;;;-147.06;100.00
54453;BME280;40363;52.270;10.546;2023-02-18T05:59:48;77179.97;;;-147.06;100.00
54453;BME280;40363;52.270;10.546;2023-02-18T06:02:15;77167.63;;;-147.06;100.00
54453;BME280;40363;52.270;10.546;2023-02-18T06:04:42;77163.50;;;-147.06;100.00
54453;BME280;40363;52.270;10.546;2023-02-18T06:07:08;77167.63;;;-147.06;100.00
54453;BME280;40363;52.270;10.546;2023-02-18T06:09:35;77163.50;;;-147.06;100.00
54453;BME280;40363;52.270;10.546;2023-02-18T06:12:03;77155.28;;;-147.06;100.00
54453;BME280;40363;52.270;10.546;2023-02-18T06:14:30;77145.00;;;-147.06;100.00
54453;BME280;40363;52.270;10.546;2023-02-18T06:16:57;77140.91;;;-147.06;100.00
54453;BME280;40363;52.270;10.546;2023-02-18T06:19:23;77140.91;;;-147.06;100.00
54453;BME280;40363;52.270;10.546;2023-02-18T06:21:50;77136.78;;;-147.06;100.00
54453;BME280;40363;52.270;10.546;2023-02-18T06:24:17;77132.69;;;-147.06;100.00
54453;BME280;40363;52.270;10.546;2023-02-18T06:26:43;77134.72;;;-147.06;100.00
54453;BME280;40363;52.270;10.546;2023-02-18T06:29:11;77126.50;;;-147.06;100.00
54453;BME280;40363;52.270;10.546;2023-02-18T06:31:38;77132.69;;;-147.06;100.00
54453;BME280;40363;52.270;10.546;2023-02-18T06:34:04;77134.72;;;-147.06;100.00
54453;BME280;40363;52.270;10.546;2023-02-18T06:36:31;77116.22;;;-147.06;100.00
54453;BME280;40363;52.270;10.546;2023-02-18T06:38:58;77122.41;;;-147.06;100.00
54453;BME280;40363;52.270;10.546;2023-02-18T06:41:24;77108.00;;;-147.06;100.00
54453;BME280;40363;52.270;10.546;2023-02-18T06:43:51;77101.84;;;-147.06;100.00
54453;BME280;40363;52.270;10.546;2023-02-18T06:46:19;77085.41;;;-147.06;100.00
54453;BME280;40363;52.270;10.546;2023-02-18T06:48:46;77081.28;;;-147.06;100.00
54453;BME280;40363;52.270;10.546;2023-02-18T06:51:13;77064.84;;;-147.06;100.00
54453;BME280;40363;52.270;10.546;2023-02-18T06:53:40;77064.84;;;-147.06;100.00
54453;BME280;40363;52.270;10.546;2023-02-18T06:56:08;77052.50;;;-147.06;100.00
54453;BME280;40363;52.270;10.546;2023-02-18T06:58:35;77054.56;;;-147.06;100.00
54453;BME280;40363;52.270;10.546;2023-02-18T07:01:01;77060.72;;;-147.06;100.00
54453;BME280;40363;52.270;10.546;2023-02-18T07:03:29;77052.50;;;-147.06;100.00
54453;BME280;40363;52.270;10.546;2023-02-18T07:05:56;77040.16;;;-147.06;100.00
54453;BME280;40363;52.270;10.546;2023-02-18T07:08:23;77034.00;;;-147.06;100.00
54453;BME280;40363;52.270;10.546;2023-02-18T07:10:49;77029.88;;;-147.06;100.00
54453;BME280;40363;52.270;10.546;2023-02-18T07:13:16;77034.00;;;-147.06;100.00
54453;BME280;40363;52.270;10.546;2023-02-18T07:15:43;77025.78;;;-147.06;100.00
54453;BME280;40363;52.270;10.546;2023-02-18T07:18:10;77023.72;;;-147.06;100.00
54453;BME280;40363;52.270;10.546;2023-02-18T07:20:38;77015.50;;;-147.06;100.00
54453;BME280;40363;52.270;10.546;2023-02-18T07:23:04;77001.13;;;-147.06;100.00
54453;BME280;40363;52.270;10.546;2023-02-18T07:25:31;76999.06;;;-147.06;100.00
54453;BME280;40363;52.270;10.546;2023-02-18T07:27:58;77001.13;;;-147.06;100.00
54453;BME280;40363;52.270;10.546;2023-02-18T07:30:24;77003.16;;;-147.06;100.00
54453;BME280;40363;52.270;10.546;2023-02-18T07:32:51;76997.00;;;-147.06;100.00
54453;BME280;40363;52.270;10.546;2023-02-18T07:35:18;76980.56;;;-147.06;100.00
54453;BME280;40363;52.270;10.546;2023-02-18T07:37:48;76982.63;;;-147.06;100.00
54453;BME280;40363;52.270;10.546;2023-02-18T07:40:17;76978.50;;;-147.06;100.00
54453;BME280;40363;52.270;10.546;2023-02-18T07:42:44;76972.34;;;-147.06;100.00
54453;BME280;40363;52.270;10.546;2023-02-18T07:45:12;76968.22;;;-147.06;100.00
54453;BME280;40363;52.270;10.546;2023-02-18T07:47:39;76962.06;;;-147.06;100.00
54453;BME280;40363;52.270;10.546;2023-02-18T07:50:08;76970.28;;;-147.06;100.00
54453;BME280;40363;52.270;10.546;2023-02-18T07:52:35;76957.94;;;-147.06;100.00
54453;BME280;40363;52.270;10.546;2023-02-18T07:55:04;76945.63;;;-147.06;100.00
54453;BME280;40363;52.270;10.546;2023-02-18T07:57:30;76964.13;;;-147.06;100.00
54453;BME280;40363;52.270;10.546;2023-02-18T07:59:58;76957.94;;;-147.06;100.00
54453;BME280;40363;52.270;10.546;2023-02-18T08:02:25;76962.06;;;-147.06;100.00
54453;BME280;40363;52.270;10.546;2023-02-18T08:04:52;76951.78;;;-147.06;100.00
54453;BME280;40363;52.270;10.546;2023-02-18T08:07:20;76937.38;;;-147.06;100.00
54453;BME280;40363;52.270;10.546;2023-02-18T08:09:48;76933.28;;;-147.06;100.00
54453;BME280;40363;52.270;10.546;2023-02-18T08:12:16;76904.50;;;-147.06;100.00
54453;BME280;40363;52.270;10.546;2023-02-18T08:14:43;76902.44;;;-147.06;100.00
54453;BME280;40363;52.270;10.546;2023-02-18T08:17:10;76898.34;;;-147.06;100.00
54453;BME280;40363;52.270;10.546;2023-02-18T08:19:36;76892.16;;;-147.06;100.00
54453;BME280;40363;52.270;10.546;2023-02-18T08:22:03;76879.84;;;-147.06;100.00
54453;BME280;40363;52.270;10.546;2023-02-18T08:24:30;76863.38;;;-147.06;100.00
54453;BME280;40363;52.270;10.546;2023-02-18T08:26:56;76855.16;;;-147.06;100.00
54453;BME280;40363;52.270;10.546;2023-02-18T08:29:24;76853.13;;;-147.06;100.00
54453;BME280;40363;52.270;10.546;2023-02-18T08:31:51;76838.72;;;-147.06;100.00
54453;BME280;40363;52.270;10.546;2023-02-18T08:34:19;76828.44;;;-147.06;100.00
54453;BME280;40363;52.270;10.546;2023-02-18T08:36:46;76807.88;;;-147.06;100.00
54453;BME280;40363;52.270;10.546;2023-02-18T08:39:12;76797.63;;;-147.06;100.00
54453;BME280;40363;52.270;10.546;2023-02-18T08:41:39;76789.38;;;-147.06;100.00
54453;BME280;40363;52.270;10.546;2023-02-18T08:44:06;76795.56;;;-147.06;100.00
54453;BME280;40363;52.270;10.546;2023-02-18T08:46:34;76783.22;;;-147.06;100.00
54453;BME280;40363;52.270;10.546;2023-02-18T08:49:02;76781.16;;;-147.06;100.00
54453;BME280;40363;52.270;10.546;2023-02-18T08:51:30;76760.63;;;-147.06;100.00
54453;BME280;40363;52.270;10.546;2023-02-18T08:54:01;76748.28;;;-147.06;100.00
54453;BME280;40363;52.270;10.546;2023-02-18T08:56:28;76735.94;;;-147.06;100.00
54453;BME280;40363;52.270;10.546;2023-02-18T08:58:55;76729.78;;;-147.06;100.00
54453;BME280;40363;52.270;10.546;2023-02-18T09:01:23;76711.28;;;-147.06;100.00
54453;BME280;40363;52.270;10.546;2023-02-18T09:03:51;76709.22;;;-147.06;100.00
54453;BME280;40363;52.270;10.546;2023-02-18T09:06:18;76698.94;;;-147.06;100.00
54453;BME280;40363;52.270;10.546;2023-02-18T09:08:46;76686.63;;;-147.06;100.00
54453;BME280;40363;52.270;10.546;2023-02-18T09:11:13;76668.13;;;-147.06;100.00
54453;BME280;40363;52.270;10.546;2023-02-18T09:13:40;76664.00;;;-147.06;100.00
54453;BME280;40363;52.270;10.546;2023-02-18T09:16:10;76653.72;;;-147.06;100.00
54453;BME280;40363;52.270;10.546;2023-02-18T09:18:37;76649.63;;;-147.06;100.00
54453;BME280;40363;52.270;10.546;2023-02-18T09:21:07;76637.28;;;-147.06;100.00
54453;BME280;40363;52.270;10.546;2023-02-18T09:23:34;76627.00;;;-147.06;100.00
54453;BME280;40363;52.270;10.546;2023-02-18T09:26:04;76612.63;;;-147.06;100.00
54453;BME280;40363;52.270;10.546;2023-02-18T09:28:31;76610.56;;;-147.06;100.00
54453;BME280;40363;52.270;10.546;2023-02-18T09:31:11;76594.13;;;-147.06;100.00
54453;BME280;40363;52.270;10.546;2023-02-18T09:33:44;76598.22;;;-147.06;100.00
54453;BME280;40363;52.270;10.546;2023-02-18T09:36:33;76567.41;;;-147.06;100.00
54453;BME280;40363;52.270;10.546;2023-02-18T09:39:03;76555.06;;;-147.06;100.00
54453;BME280;40363;52.270;10.546;2023-02-18T09:41:38;76536.56;;;-147.06;100.00
54453;BME280;40363;52.270;10.546;2023-02-18T09:44:13;76522.19;;;-147.06;100.00
54453;BME280;40363;52.270;10.546;2023-02-18T09:46:48;76513.97;;;-147.06;100.00
54453;BME280;40363;52.270;10.546;2023-02-18T09:49:21;76497.50;;;-147.06;100.00
54453;BME280;40363;52.270;10.546;2023-02-18T09:51:56;76487.25;;;-147.06;100.00
54453;BME280;40363;52.270;10.546;2023-02-18T09:54:30;76485.19;;;-147.06;100.00
54453;BME280;40363;52.270;10.546;2023-02-18T09:56:58;76474.91;;;-147.06;100.00
54453;BME280;40363;52.270;10.546;2023-02-18T09:59:25;76468.75;;;-147.06;100.00
54453;BME280;40363;52.270;10.546;2023-02-18T10:01:53;76454.34;;;-147.06;100.00
54453;BME280;40363;52.270;10.546;2023-02-18T10:04:24;76435.84;;;-147.06;100.00
54453;BME280;40363;52.270;10.546;2023-02-18T10:06:57;76444.06;;;-147.06;100.00
54453;BME280;40363;52.270;10.546;2023-02-18T10:09:36;76435.84;;;-147.06;100.00
54453;BME280;40363;52.270;10.546;2023-02-18T10:12:12;76419.41;;;-147.06;100.00
54453;BME280;40363;52.270;10.546;2023-02-18T10:14:39;76425.56;;;-147.06;100.00
54453;BME280;40363;52.270;10.546;2023-02-18T10:17:08;76417.34;;;-147.06;100.00
54453;BME280;40363;52.270;10.546;2023-02-18T10:19:37;76409.13;;;-147.06;100.00
54453;BME280;40363;52.270;10.546;2023-02-18T10:22:08;76409.13;;;-147.06;100.00
54453;BME280;40363;52.270;10.546;2023-02-18T10:24:39;76409.13;;;-147.06;100.00
54453;BME280;40363;52.270;10.546;2023-02-18T10:27:15;76407.06;;;-147.06;100.00
54453;BME280;40363;52.270;10.546;2023-02-18T10:29:44;76390.63;;;-147.06;100.00
54453;BME280;40363;52.270;10.546;2023-02-18T10:32:18;76396.81;;;-147.06;100.00
54453;BME280;40363;52.270;10.546;2023-02-18T10:34:48;76398.84;;;-147.06;100.00
54453;BME280;40363;52.270;10.546;2023-02-18T10:37:36;76390.63;;;-147.06;100.00
54453;BME280;40363;52.270;10.546;2023-02-18T10:40:12;76388.59;;;-147.06;100.00
54453;BME280;40363;52.270;10.546;2023-02-18T10:42:50;76398.84;;;-147.06;100.00
54453;BME280;40363;52.270;10.546;2023-02-18T10:45:30;76394.75;;;-147.06;100.00
54453;BME280;40363;52.270;10.546;2023-02-18T10:48:09;76380.34;;;-147.06;100.00
54453;BME280;40363;52.270;10.546;2023-02-18T10:50:41;76386.53;;;-147.06;100.00
54453;BME280;40363;52.270;10.546;2023-02-18T10:53:13;76372.13;;;-147.06;99.93
54453;BME280;40363;52.270;10.546;2023-02-18T10:55:46;76363.91;;;-147.06;99.46
54453;BME280;40363;52.270;10.546;2023-02-18T10:58:32;76345.41;;;-147.06;98.86
54453;BME280;40363;52.270;10.546;2023-02-18T11:01:03;76351.59;;;-147.06;98.59
54453;BME280;40363;52.270;10.546;2023-02-18T11:03:41;76347.47;;;-147.06;97.51
54453;BME280;40363;52.270;10.546;2023-02-18T11:06:21;76349.53;;;-147.06;97.50
54453;BME280;40363;52.270;10.546;2023-02-18T11:08:54;76347.47;;;-147.06;97.56
54453;BME280;40363;52.270;10.546;2023-02-18T11:11:24;76353.63;;;-147.06;97.75
54453;BME280;40363;52.270;10.546;2023-02-18T11:13:56;76349.53;;;-147.06;97.77
54453;BME280;40363;52.270;10.546;2023-02-18T11:16:36;76349.53;;;-147.06;98.05
54453;BME280;40363;52.270;10.546;2023-02-18T11:19:03;76357.75;;;-147.06;98.15
54453;BME280;40363;52.270;10.546;2023-02-18T11:21:33;76357.75;;;-147.06;98.64
54453;BME280;40363;52.270;10.546;2023-02-18T11:24:08;76349.53;;;-147.06;98.42
54453;BME280;40363;52.270;10.546;2023-02-18T11:26:37;76353.63;;;-147.06;98.83
54453;BME280;40363;52.270;10.546;2023-02-18T11:29:08;76349.53;;;-147.06;98.83
54453;BME280;40363;52.270;10.546;2023-02-18T11:31:40;76365.97;;;-147.06;99.57
54453;BME280;40363;52.270;10.546;2023-02-18T11:34:14;76363.91;;;-147.06;99.34
54453;BME280;40363;52.270;10.546;2023-02-18T11:36:44;76365.97;;;-147.06;99.02
54453;BME280;40363;52.270;10.546;2023-02-18T11:39:18;76376.25;;;-147.06;99.47
54453;BME280;40363;52.270;10.546;2023-02-18T11:41:47;76374.19;;;-147.06;99.32
54453;BME280;40363;52.270;10.546;2023-02-18T11:44:20;76376.25;;;-147.06;99.85
54453;BME280;40363;52.270;10.546;2023-02-18T11:46:56;76378.31;;;-147.06;100.00
54453;BME280;40363;52.270;10.546;2023-02-18T11:49:24;76359.81;;;-147.06;100.00
54453;BME280;40363;52.270;10.546;2023-02-18T11:51:51;76394.75;;;-147.06;100.00
54453;BME280;40363;52.270;10.546;2023-02-18T11:54:25;76370.09;;;-147.06;100.00
54453;BME280;40363;52.270;10.546;2023-02-18T11:56:56;76405.03;;;-147.06;100.00
54453;BME280;40363;52.270;10.546;2023-02-18T11:59:25;76398.84;;;-147.06;100.00
54453;BME280;40363;52.270;10.546;2023-02-18T12:01:56;76380.34;;;-147.06;100.00
54453;BME280;40363;52.270;10.546;2023-02-18T12:04:28;76382.41;;;-147.06;100.00
54453;BME280;40363;52.270;10.546;2023-02-18T12:07:05;76394.75;;;-147.06;99.85
54453;BME280;40363;52.270;10.546;2023-02-18T12:09:40;76386.53;;;-147.06;98.80
54453;BME280;40363;52.270;10.546;2023-02-18T12:12:12;76361.84;;;-147.06;98.67
54453;BME280;40363;52.270;10.546;2023-02-18T12:14:41;76400.91;;;-147.06;99.17
54453;BME280;40363;52.270;10.546;2023-02-18T12:20:37;76398.84;;;-147.06;100.00
54453;BME280;40363;52.270;10.546;2023-02-18T12:23:14;76394.75;;;-147.06;99.79
54453;BME280;40363;52.270;10.546;2023-02-18T12:28:49;76405.03;;;-147.06;100.00
54453;BME280;40363;52.270;10.546;2023-02-18T12:31:28;76411.19;;;-147.06;100.00
54453;BME280;40363;52.270;10.546;2023-02-18T12:34:19;76417.34;;;-147.06;100.00
54453;BME280;40363;52.270;10.546;2023-02-18T12:36:57;76409.13;;;-147.06;100.00
54453;BME280;40363;52.270;10.546;2023-02-18T12:42:11;76431.75;;;-147.06;100.00
54453;BME280;40363;52.270;10.546;2023-02-18T12:44:43;76419.41;;;-147.06;100.00
54453;BME280;40363;52.270;10.546;2023-02-18T12:47:28;76437.91;;;-147.06;100.00
54453;BME280;40363;52.270;10.546;2023-02-18T12:50:26;76435.84;;;-147.06;100.00
54453;BME280;40363;52.270;10.546;2023-02-18T12:53:11;76444.06;;;-147.06;100.00
54453;BME280;40363;52.270;10.546;2023-02-18T12:55:53;76435.84;;;-147.06;100.00
54453;BME280;40363;52.270;10.546;2023-02-18T12:58:34;76444.06;;;-147.06;100.00
54453;BME280;40363;52.270;10.546;2023-02-18T13:01:23;76437.91;;;-147.06;100.00